createdAt,value
2024-02-18T00:00:25.672Z,0.00
2024-02-18T00:01:25.783Z,0.00
2024-02-18T00:02:25.625Z,0.00
2024-02-18T00:03:25.685Z,0.00
2024-02-18T00:04:25.681Z,0.00
2024-02-18T00:05:25.613Z,0.00
2024-02-18T00:06:25.666Z,0.00
2024-02-18T00:07:25.670Z,0.00
2024-02-18T00:08:25.570Z,0.00
2024-02-18T00:09:25.658Z,0.00
2024-02-18T00:10:25.560Z,0.00
2024-02-18T00:11:25.571Z,0.00
2024-02-18T00:12:25.704Z,0.00
2024-02-18T00:13:25.568Z,0.00
2024-02-18T00:14:25.524Z,0.00
2024-02-18T00:15:25.556Z,0.00
2024-02-18T00:16:25.476Z,0.00
2024-02-18T00:17:25.486Z,0.00
2024-02-18T00:18:28.093Z,0.00
2024-02-18T00:19:25.566Z,0.00
2024-02-18T00:20:25.503Z,0.00
2024-02-18T00:21:25.463Z,0.00
2024-02-18T00:22:25.402Z,0.00
2024-02-18T00:23:25.394Z,0.00
2024-02-18T00:24:25.426Z,0.00
2024-02-18T00:25:25.379Z,0.00
2024-02-18T00:26:34.784Z,0.00
2024-02-18T00:27:26.433Z,0.00
2024-02-18T00:28:25.347Z,0.00
2024-02-18T00:29:25.347Z,0.00
2024-02-18T00:30:25.407Z,0.00
2024-02-18T00:31:25.314Z,0.00
2024-02-18T00:32:25.371Z,0.00
2024-02-18T00:33:25.392Z,0.00
2024-02-18T00:34:25.726Z,0.00
2024-02-18T00:35:25.280Z,0.00
2024-02-18T00:36:25.278Z,0.00
2024-02-18T00:37:25.243Z,0.00
2024-02-18T00:38:25.232Z,0.00
2024-02-18T00:39:25.232Z,0.00
2024-02-18T00:40:25.238Z,0.00
2024-02-18T00:41:25.194Z,0.00
2024-02-18T00:42:25.284Z,0.00
2024-02-18T00:43:25.206Z,0.00
2024-02-18T00:44:25.159Z,0.00
2024-02-18T00:45:25.183Z,0.00
2024-02-18T00:46:38.505Z,0.00
2024-02-18T00:47:25.182Z,0.00
2024-02-18T00:48:25.241Z,0.00
2024-02-18T00:49:25.266Z,0.00
2024-02-18T00:50:25.104Z,0.00
2024-02-18T00:51:25.140Z,0.00
2024-02-18T00:52:25.069Z,0.00
2024-02-18T00:53:25.060Z,0.00
2024-02-18T00:54:25.145Z,0.00
2024-02-18T00:55:25.037Z,0.00
2024-02-18T00:56:25.025Z,0.00
2024-02-18T00:57:25.086Z,0.00
2024-02-18T00:58:25.025Z,0.00
2024-02-18T00:59:24.993Z,0.00
2024-02-18T01:00:24.998Z,0.00
2024-02-18T01:01:25.207Z,0.00
2024-02-18T01:02:24.958Z,0.00
2024-02-18T01:03:25.068Z,0.00
2024-02-18T01:04:24.984Z,0.00
2024-02-18T01:05:25.041Z,0.00
2024-02-18T01:06:24.940Z,0.00
2024-02-18T01:07:24.901Z,0.00
2024-02-18T01:08:24.890Z,0.00
2024-02-18T01:09:24.924Z,0.00
2024-02-18T01:10:24.892Z,0.00
2024-02-18T01:11:24.882Z,0.00
2024-02-18T01:12:24.856Z,0.00
2024-02-18T01:13:24.832Z,0.00
2024-02-18T01:14:24.847Z,0.00
2024-02-18T01:15:24.833Z,0.00
2024-02-18T01:16:24.807Z,0.00
2024-02-18T01:17:24.797Z,0.00
2024-02-18T01:18:24.934Z,0.00
2024-02-18T01:19:25.295Z,0.00
2024-02-18T01:20:24.761Z,0.00
2024-02-18T01:21:24.824Z,0.00
2024-02-18T01:22:24.733Z,0.00
2024-02-18T01:23:24.731Z,0.00
2024-02-18T01:24:24.737Z,0.00
2024-02-18T01:25:24.706Z,0.00
2024-02-18T01:26:24.686Z,0.00
2024-02-18T01:27:24.730Z,0.00
2024-02-18T01:28:24.685Z,0.00
2024-02-18T01:29:24.661Z,0.00
2024-02-18T01:30:24.711Z,0.00
2024-02-18T01:31:24.636Z,0.00
2024-02-18T01:32:24.650Z,0.00
2024-02-18T01:33:24.792Z,0.00
2024-02-18T01:34:24.841Z,0.00
2024-02-18T01:35:24.590Z,0.00
2024-02-18T01:36:24.720Z,0.00
2024-02-18T01:37:24.568Z,0.00
2024-02-18T01:38:24.554Z,0.00
2024-02-18T01:39:24.589Z,0.00
2024-02-18T01:40:24.543Z,0.00
2024-02-18T01:41:24.534Z,0.00
2024-02-18T01:42:24.556Z,0.00
2024-02-18T01:43:24.502Z,0.00
2024-02-18T01:44:24.489Z,0.00
2024-02-18T01:45:24.540Z,0.00
2024-02-18T01:46:24.486Z,0.00
2024-02-18T01:47:24.710Z,0.00
2024-02-18T01:48:24.758Z,0.00
2024-02-18T01:49:24.558Z,0.00
2024-02-18T01:50:24.558Z,0.00
2024-02-18T01:51:24.485Z,0.00
2024-02-18T01:52:24.434Z,0.00
2024-02-18T01:53:24.417Z,0.00
2024-02-18T01:54:24.406Z,0.00
2024-02-18T01:55:24.375Z,0.00
2024-02-18T01:56:24.354Z,0.00
2024-02-18T01:57:24.396Z,0.00
2024-02-18T01:58:24.338Z,0.00
2024-02-18T01:59:24.354Z,0.00
2024-02-18T02:00:24.342Z,0.00
2024-02-18T02:01:24.451Z,0.00
2024-02-18T02:02:24.409Z,0.00
2024-02-18T02:03:24.405Z,0.00
2024-02-18T02:04:24.358Z,0.00
2024-02-18T02:05:24.276Z,0.00
2024-02-18T02:06:24.325Z,0.00
2024-02-18T02:07:24.238Z,0.00
2024-02-18T02:08:24.437Z,0.00
2024-02-18T02:09:24.241Z,0.00
2024-02-18T02:10:24.219Z,0.00
2024-02-18T02:11:24.228Z,0.00
2024-02-18T02:12:24.233Z,0.00
2024-02-18T02:13:24.165Z,0.00
2024-02-18T02:14:24.170Z,0.00
2024-02-18T02:15:24.183Z,0.00
2024-02-18T02:16:24.131Z,0.00
2024-02-18T02:17:24.123Z,0.00
2024-02-18T02:18:24.303Z,0.00
2024-02-18T02:19:24.264Z,0.00
2024-02-18T02:20:24.091Z,0.00
2024-02-18T02:21:24.081Z,0.00
2024-02-18T02:22:24.069Z,0.00
2024-02-18T02:23:24.051Z,0.00
2024-02-18T02:24:24.063Z,0.00
2024-02-18T02:25:24.061Z,0.00
2024-02-18T02:26:24.015Z,0.00
2024-02-18T02:27:24.034Z,0.00
2024-02-18T02:28:23.991Z,0.00
2024-02-18T02:29:23.982Z,0.00
2024-02-18T02:30:23.992Z,0.00
2024-02-18T02:31:23.975Z,0.00
2024-02-18T02:32:24.004Z,0.00
2024-02-18T02:33:23.976Z,0.00
2024-02-18T02:34:24.118Z,0.00
2024-02-18T02:35:23.969Z,0.00
2024-02-18T02:36:23.927Z,0.00
2024-02-18T02:37:23.908Z,0.00
2024-02-18T02:38:23.900Z,0.00
2024-02-18T02:39:23.915Z,0.00
2024-02-18T02:40:23.910Z,0.00
2024-02-18T02:41:23.848Z,0.00
2024-02-18T02:42:23.898Z,0.00
2024-02-18T02:43:23.824Z,0.00
2024-02-18T02:44:23.817Z,0.00
2024-02-18T02:45:23.822Z,0.00
2024-02-18T02:46:23.808Z,0.00
2024-02-18T02:47:23.854Z,0.00
2024-02-18T02:48:23.827Z,0.00
2024-02-18T02:49:23.903Z,0.00
2024-02-18T02:50:23.769Z,0.00
2024-02-18T02:51:23.774Z,0.00
2024-02-18T02:52:23.728Z,0.00
2024-02-18T02:53:23.721Z,0.00
2024-02-18T02:54:23.719Z,0.00
2024-02-18T02:55:23.690Z,0.00
2024-02-18T02:56:23.684Z,0.00
2024-02-18T02:57:23.704Z,0.00
2024-02-18T02:58:23.658Z,0.00
2024-02-18T02:59:23.650Z,0.00
2024-02-18T03:00:23.695Z,0.00
2024-02-18T03:01:23.773Z,0.00
2024-02-18T03:02:23.611Z,0.00
2024-02-18T03:03:23.665Z,0.00
2024-02-18T03:04:23.779Z,0.00
2024-02-18T03:05:23.581Z,0.00
2024-02-18T03:06:23.798Z,0.00
2024-02-18T03:07:23.608Z,0.00
2024-02-18T03:08:23.560Z,0.00
2024-02-18T03:09:23.549Z,0.00
2024-02-18T03:10:23.637Z,0.00
2024-02-18T03:11:23.518Z,0.00
2024-02-18T03:12:23.578Z,0.00
2024-02-18T03:13:23.587Z,0.00
2024-02-18T03:14:23.477Z,0.00
2024-02-18T03:15:23.527Z,0.00
2024-02-18T03:16:23.465Z,0.00
2024-02-18T03:17:23.445Z,0.00
2024-02-18T03:18:23.587Z,0.00
2024-02-18T03:19:23.564Z,0.00
2024-02-18T03:20:23.517Z,0.00
2024-02-18T03:21:23.439Z,0.00
2024-02-18T03:22:23.423Z,0.00
2024-02-18T03:23:23.382Z,0.00
2024-02-18T03:24:23.391Z,0.00
2024-02-18T03:25:23.369Z,0.00
2024-02-18T03:26:23.348Z,0.00
2024-02-18T03:27:23.394Z,0.00
2024-02-18T03:28:23.326Z,0.00
2024-02-18T03:29:23.319Z,0.00
2024-02-18T03:30:23.368Z,0.00
2024-02-18T03:31:23.292Z,0.00
2024-02-18T03:32:23.320Z,0.00
2024-02-18T03:33:23.455Z,0.00
2024-02-18T03:34:23.446Z,0.00
2024-02-18T03:35:23.297Z,0.00
2024-02-18T03:36:23.285Z,0.00
2024-02-18T03:37:23.226Z,0.00
2024-02-18T03:38:23.265Z,0.00
2024-02-18T03:39:23.884Z,0.00
2024-02-18T03:40:23.199Z,0.00
2024-02-18T03:41:23.190Z,0.00
2024-02-18T03:42:23.214Z,0.00
2024-02-18T03:43:23.176Z,0.00
2024-02-18T03:44:23.150Z,0.00
2024-02-18T03:45:23.158Z,0.00
2024-02-18T03:46:23.124Z,0.00
2024-02-18T03:47:23.150Z,0.00
2024-02-18T03:48:23.161Z,0.00
2024-02-18T03:49:23.249Z,0.00
2024-02-18T03:50:23.079Z,0.00
2024-02-18T03:51:23.106Z,0.00
2024-02-18T03:52:23.065Z,0.00
2024-02-18T03:53:23.045Z,0.00
2024-02-18T03:54:23.077Z,0.00
2024-02-18T03:55:23.032Z,0.00
2024-02-18T03:56:23.014Z,0.00
2024-02-18T03:57:23.030Z,0.00
2024-02-18T03:58:22.993Z,0.00
2024-02-18T03:59:22.986Z,0.00
2024-02-18T04:00:23.013Z,0.00
2024-02-18T04:01:23.081Z,0.00
2024-02-18T04:02:22.945Z,0.00
2024-02-18T04:03:23.008Z,0.00
2024-02-18T04:04:23.050Z,0.00
2024-02-18T04:05:22.950Z,0.00
2024-02-18T04:06:22.985Z,0.00
2024-02-18T04:07:22.905Z,0.00
2024-02-18T04:08:22.875Z,0.00
2024-02-18T04:09:22.922Z,0.00
2024-02-18T04:10:22.888Z,0.00
2024-02-18T04:11:22.940Z,0.00
2024-02-18T04:12:22.874Z,0.00
2024-02-18T04:13:22.822Z,0.00
2024-02-18T04:14:22.819Z,0.00
2024-02-18T04:15:22.843Z,0.00
2024-02-18T04:16:22.788Z,0.00
2024-02-18T04:17:22.774Z,0.00
2024-02-18T04:18:22.900Z,0.00
2024-02-18T04:19:22.862Z,0.00
2024-02-18T04:20:22.781Z,0.00
2024-02-18T04:21:22.795Z,0.00
2024-02-18T04:22:22.729Z,0.00
2024-02-18T04:23:22.715Z,0.00
2024-02-18T04:24:22.773Z,0.00
2024-02-18T04:25:22.723Z,0.00
2024-02-18T04:26:22.823Z,0.00
2024-02-18T04:27:22.749Z,0.00
2024-02-18T04:28:22.657Z,0.00
2024-02-18T04:29:22.641Z,0.00
2024-02-18T04:30:22.717Z,0.00
2024-02-18T04:31:22.628Z,0.00
2024-02-18T04:32:22.620Z,0.00
2024-02-18T04:33:22.809Z,0.00
2024-02-18T04:34:22.700Z,0.00
2024-02-18T04:35:22.575Z,0.00
2024-02-18T04:36:22.645Z,0.00
2024-02-18T04:37:22.555Z,0.00
2024-02-18T04:38:22.565Z,0.00
2024-02-18T04:39:22.585Z,0.00
2024-02-18T04:40:22.518Z,0.00
2024-02-18T04:41:22.621Z,0.00
2024-02-18T04:42:22.676Z,0.00
2024-02-18T04:43:22.483Z,0.00
2024-02-18T04:44:22.495Z,0.00
2024-02-18T04:45:22.522Z,0.00
2024-02-18T04:46:22.488Z,0.00
2024-02-18T04:47:22.507Z,0.00
2024-02-18T04:48:22.802Z,0.00
2024-02-18T04:49:22.695Z,0.00
2024-02-18T04:50:22.450Z,0.00
2024-02-18T04:51:22.489Z,0.00
2024-02-18T04:52:22.413Z,0.00
2024-02-18T04:53:22.403Z,0.00
2024-02-18T04:54:22.448Z,0.00
2024-02-18T04:55:22.474Z,0.00
2024-02-18T04:56:22.348Z,0.00
2024-02-18T04:57:22.479Z,0.00
2024-02-18T04:58:22.370Z,0.00
2024-02-18T04:59:22.366Z,0.00
2024-02-18T05:00:22.421Z,0.00
2024-02-18T05:01:22.402Z,0.00
2024-02-18T05:02:22.301Z,0.00
2024-02-18T05:03:22.521Z,0.00
2024-02-18T05:04:22.280Z,0.00
2024-02-18T05:05:22.324Z,0.00
2024-02-18T05:06:22.273Z,0.00
2024-02-18T05:07:22.236Z,0.00
2024-02-18T05:08:22.219Z,0.00
2024-02-18T05:09:22.209Z,0.00
2024-02-18T05:10:22.196Z,0.00
2024-02-18T05:11:22.199Z,0.00
2024-02-18T05:12:22.179Z,0.00
2024-02-18T05:13:22.156Z,0.00
2024-02-18T05:14:22.225Z,0.00
2024-02-18T05:15:22.291Z,0.00
2024-02-18T05:16:22.132Z,0.00
2024-02-18T05:17:22.113Z,0.00
2024-02-18T05:18:22.475Z,0.00
2024-02-18T05:19:22.163Z,0.00
2024-02-18T05:20:22.069Z,0.00
2024-02-18T05:21:22.088Z,0.00
2024-02-18T05:22:22.054Z,0.00
2024-02-18T05:23:22.033Z,0.00
2024-02-18T05:24:22.053Z,0.00
2024-02-18T05:25:22.010Z,0.00
2024-02-18T05:26:22.016Z,0.00
2024-02-18T05:27:22.013Z,0.00
2024-02-18T05:28:21.979Z,0.00
2024-02-18T05:29:21.980Z,0.00
2024-02-18T05:30:22.013Z,0.00
2024-02-18T05:31:22.045Z,0.00
2024-02-18T05:32:21.941Z,0.00
2024-02-18T05:33:22.142Z,0.00
2024-02-18T05:34:22.333Z,0.00
2024-02-18T05:35:22.004Z,0.00
2024-02-18T05:36:21.994Z,0.00
2024-02-18T05:37:21.890Z,0.00
2024-02-18T05:38:21.860Z,0.00
2024-02-18T05:39:21.897Z,0.00
2024-02-18T05:40:21.842Z,0.00
2024-02-18T05:41:21.830Z,0.00
2024-02-18T05:42:21.920Z,0.00
2024-02-18T05:43:21.807Z,0.00
2024-02-18T05:44:21.835Z,0.00
2024-02-18T05:45:21.920Z,0.00
2024-02-18T05:46:21.799Z,0.00
2024-02-18T05:47:21.762Z,0.00
2024-02-18T05:48:21.915Z,0.00
2024-02-18T05:49:21.841Z,0.00
2024-02-18T05:50:21.741Z,0.00
2024-02-18T05:51:21.786Z,0.00
2024-02-18T05:52:21.705Z,0.00
2024-02-18T05:53:21.708Z,0.00
2024-02-18T05:54:21.761Z,0.00
2024-02-18T05:55:21.671Z,0.00
2024-02-18T05:56:21.683Z,0.00
2024-02-18T05:57:21.740Z,0.00
2024-02-18T05:58:21.644Z,0.00
2024-02-18T05:59:21.639Z,0.00
2024-02-18T06:00:21.843Z,0.00
2024-02-18T06:01:21.704Z,0.00
2024-02-18T06:02:21.720Z,0.00
2024-02-18T06:03:21.657Z,0.00
2024-02-18T06:04:21.579Z,0.00
2024-02-18T06:05:21.616Z,0.00
2024-02-18T06:06:21.794Z,0.00
2024-02-18T06:07:21.607Z,0.00
2024-02-18T06:08:21.532Z,0.00
2024-02-18T06:09:21.621Z,0.00
2024-02-18T06:10:21.621Z,0.00
2024-02-18T06:11:21.772Z,0.00
2024-02-18T06:12:21.587Z,0.00
2024-02-18T06:13:21.499Z,0.00
2024-02-18T06:14:21.457Z,0.00
2024-02-18T06:15:21.446Z,0.00
2024-02-18T06:16:21.444Z,0.00
2024-02-18T06:17:21.467Z,0.00
2024-02-18T06:18:21.778Z,0.00
2024-02-18T06:19:21.550Z,0.00
2024-02-18T06:20:21.389Z,0.00
2024-02-18T06:21:21.570Z,0.00
2024-02-18T06:22:21.396Z,0.00
2024-02-18T06:23:21.358Z,0.00
2024-02-18T06:24:21.348Z,0.00
2024-02-18T06:25:21.332Z,0.00
2024-02-18T06:26:21.332Z,0.00
2024-02-18T06:27:21.322Z,0.00
2024-02-18T06:28:21.295Z,0.00
2024-02-18T06:29:21.289Z,0.00
2024-02-18T06:30:21.282Z,0.00
2024-02-18T06:31:21.308Z,0.00
2024-02-18T06:32:21.328Z,0.00
2024-02-18T06:33:21.500Z,0.00
2024-02-18T06:34:21.638Z,0.00
2024-02-18T06:35:21.554Z,0.00
2024-02-18T06:36:21.365Z,0.00
2024-02-18T06:37:21.255Z,0.00
2024-02-18T06:38:21.181Z,0.00
2024-02-18T06:39:24.975Z,0.00
2024-02-18T06:40:21.177Z,0.00
2024-02-18T06:41:21.150Z,0.00
2024-02-18T06:42:21.142Z,0.00
2024-02-18T06:43:21.126Z,0.00
2024-02-18T06:44:21.111Z,0.00
2024-02-18T06:45:21.107Z,0.00
2024-02-18T06:46:21.122Z,0.00
2024-02-18T06:47:21.081Z,5.62
2024-02-18T06:48:21.139Z,5.62
2024-02-18T06:49:21.190Z,5.62
2024-02-18T06:50:21.164Z,5.62
2024-02-18T06:51:21.039Z,5.62
2024-02-18T06:52:21.032Z,5.62
2024-02-18T06:53:21.030Z,5.62
2024-02-18T06:54:21.009Z,5.62
2024-02-18T06:55:21.000Z,5.62
2024-02-18T06:56:20.989Z,5.62
2024-02-18T06:57:20.972Z,5.62
2024-02-18T06:58:21.009Z,5.62
2024-02-18T06:59:20.965Z,11.25
2024-02-18T07:00:20.935Z,11.25
2024-02-18T07:01:21.063Z,11.25
2024-02-18T07:02:20.909Z,11.25
2024-02-18T07:03:20.911Z,16.88
2024-02-18T07:04:20.961Z,16.88
2024-02-18T07:05:20.942Z,16.88
2024-02-18T07:06:20.986Z,16.88
2024-02-18T07:07:20.927Z,16.88
2024-02-18T07:08:20.840Z,16.88
2024-02-18T07:09:20.857Z,16.88
2024-02-18T07:10:20.849Z,16.88
2024-02-18T07:11:20.852Z,22.50
2024-02-18T07:12:20.800Z,22.50
2024-02-18T07:13:20.785Z,22.50
2024-02-18T07:14:20.776Z,22.50
2024-02-18T07:15:20.779Z,28.12
2024-02-18T07:16:20.753Z,28.12
2024-02-18T07:17:21.122Z,28.12
2024-02-18T07:18:20.818Z,28.12
2024-02-18T07:19:20.853Z,28.12
2024-02-18T07:20:20.873Z,28.12
2024-02-18T07:21:20.718Z,28.12
2024-02-18T07:22:20.796Z,33.75
2024-02-18T07:23:20.692Z,33.75
2024-02-18T07:24:20.666Z,33.75
2024-02-18T07:25:20.662Z,33.75
2024-02-18T07:26:20.647Z,33.75
2024-02-18T07:27:20.628Z,33.75
2024-02-18T07:28:20.623Z,39.38
2024-02-18T07:29:20.601Z,39.38
2024-02-18T07:30:20.598Z,39.38
2024-02-18T07:31:20.584Z,39.38
2024-02-18T07:32:20.571Z,39.38
2024-02-18T07:33:20.692Z,39.38
2024-02-18T07:34:20.796Z,39.38
2024-02-18T07:35:20.569Z,45.00
2024-02-18T07:36:20.537Z,45.00
2024-02-18T07:37:20.589Z,45.00
2024-02-18T07:38:20.623Z,45.00
2024-02-18T07:39:20.518Z,50.62
2024-02-18T07:40:20.528Z,50.62
2024-02-18T07:41:20.473Z,50.62
2024-02-18T07:42:20.460Z,56.25
2024-02-18T07:43:20.445Z,56.25
2024-02-18T07:44:20.442Z,61.88
2024-02-18T07:45:20.430Z,61.88
2024-02-18T07:46:20.477Z,61.88
2024-02-18T07:47:20.449Z,61.88
2024-02-18T07:48:20.481Z,61.88
2024-02-18T07:49:20.500Z,67.50
2024-02-18T07:50:20.392Z,67.50
2024-02-18T07:51:20.408Z,61.88
2024-02-18T07:52:20.364Z,61.88
2024-02-18T07:53:20.344Z,61.88
2024-02-18T07:54:20.494Z,61.88
2024-02-18T07:55:20.316Z,61.88
2024-02-18T07:56:20.315Z,61.88
2024-02-18T07:57:20.293Z,56.25
2024-02-18T07:58:20.300Z,56.25
2024-02-18T07:59:20.293Z,56.25
2024-02-18T08:00:20.330Z,56.25
2024-02-18T08:01:20.483Z,56.25
2024-02-18T08:02:20.288Z,56.25
2024-02-18T08:03:20.278Z,56.25
2024-02-18T08:04:20.382Z,56.25
2024-02-18T08:05:20.352Z,56.25
2024-02-18T08:06:20.382Z,61.88
2024-02-18T08:07:20.381Z,61.88
2024-02-18T08:08:20.170Z,61.88
2024-02-18T08:09:20.236Z,61.88
2024-02-18T08:10:20.278Z,67.50
2024-02-18T08:11:20.199Z,67.50
2024-02-18T08:12:20.178Z,67.50
2024-02-18T08:13:20.231Z,73.12
2024-02-18T08:14:20.173Z,73.12
2024-02-18T08:15:20.168Z,73.12
2024-02-18T08:16:20.144Z,73.12
2024-02-18T08:17:20.079Z,73.12
2024-02-18T08:18:20.123Z,73.12
2024-02-18T08:19:20.184Z,73.12
2024-02-18T08:20:20.062Z,73.12
2024-02-18T08:21:20.028Z,73.12
2024-02-18T08:22:20.087Z,73.12
2024-02-18T08:23:20.108Z,73.12
2024-02-18T08:24:19.994Z,73.12
2024-02-18T08:25:19.983Z,67.50
2024-02-18T08:26:20.087Z,67.50
2024-02-18T08:27:19.962Z,67.50
2024-02-18T08:28:19.961Z,73.12
2024-02-18T08:29:19.953Z,73.12
2024-02-18T08:30:19.925Z,73.12
2024-02-18T08:31:19.924Z,78.75
2024-02-18T08:32:19.912Z,78.75
2024-02-18T08:33:19.939Z,78.75
2024-02-18T08:34:19.928Z,78.75
2024-02-18T08:35:19.869Z,78.75
2024-02-18T08:36:19.889Z,78.75
2024-02-18T08:37:19.859Z,78.75
2024-02-18T08:38:19.849Z,78.75
2024-02-18T08:39:19.826Z,84.38
2024-02-18T08:40:19.884Z,84.38
2024-02-18T08:41:19.816Z,84.38
2024-02-18T08:42:19.907Z,84.38
2024-02-18T08:43:19.851Z,90.00
2024-02-18T08:44:19.762Z,90.00
2024-02-18T08:45:19.759Z,90.00
2024-02-18T08:46:19.739Z,95.62
2024-02-18T08:47:19.733Z,95.62
2024-02-18T08:48:19.823Z,95.62
2024-02-18T08:49:19.864Z,90.00
2024-02-18T08:50:19.690Z,90.00
2024-02-18T08:51:19.737Z,90.00
2024-02-18T08:52:19.676Z,90.00
2024-02-18T08:53:19.664Z,90.00
2024-02-18T08:54:19.660Z,95.62
2024-02-18T08:55:19.691Z,95.62
2024-02-18T08:56:19.636Z,101.25
2024-02-18T08:57:19.617Z,106.88
2024-02-18T08:58:19.649Z,112.50
2024-02-18T08:59:19.593Z,112.50
2024-02-18T09:00:19.589Z,112.50
2024-02-18T09:01:19.632Z,118.12
2024-02-18T09:02:19.568Z,123.75
2024-02-18T09:03:19.573Z,123.75
2024-02-18T09:04:19.602Z,129.38
2024-02-18T09:05:19.783Z,129.38
2024-02-18T09:06:19.599Z,135.00
2024-02-18T09:07:19.566Z,140.62
2024-02-18T09:08:19.503Z,146.25
2024-02-18T09:09:19.483Z,146.25
2024-02-18T09:10:20.402Z,140.62
2024-02-18T09:11:19.507Z,140.62
2024-02-18T09:12:19.472Z,135.00
2024-02-18T09:13:19.451Z,140.62
2024-02-18T09:14:19.667Z,146.25
2024-02-18T09:15:19.423Z,146.25
2024-02-18T09:16:19.506Z,151.88
2024-02-18T09:17:19.473Z,151.88
2024-02-18T09:18:19.490Z,151.88
2024-02-18T09:19:19.493Z,157.50
2024-02-18T09:20:19.554Z,163.12
2024-02-18T09:21:19.354Z,163.12
2024-02-18T09:22:19.367Z,168.75
2024-02-18T09:23:19.347Z,168.75
2024-02-18T09:24:19.320Z,168.75
2024-02-18T09:25:19.305Z,174.38
2024-02-18T09:26:19.312Z,174.38
2024-02-18T09:27:19.280Z,180.00
2024-02-18T09:28:19.274Z,180.00
2024-02-18T09:29:19.266Z,185.62
2024-02-18T09:30:19.359Z,191.25
2024-02-18T09:31:19.349Z,185.62
2024-02-18T09:32:19.259Z,180.00
2024-02-18T09:33:19.229Z,180.00
2024-02-18T09:34:19.278Z,180.00
2024-02-18T09:35:19.461Z,174.38
2024-02-18T09:36:19.176Z,168.75
2024-02-18T09:37:19.184Z,174.38
2024-02-18T09:38:19.158Z,174.38
2024-02-18T09:39:19.144Z,180.00
2024-02-18T09:40:19.186Z,185.62
2024-02-18T09:41:19.130Z,191.25
2024-02-18T09:42:19.140Z,185.62
2024-02-18T09:43:19.103Z,185.62
2024-02-18T09:44:19.115Z,180.00
2024-02-18T09:45:19.076Z,168.75
2024-02-18T09:46:19.151Z,163.12
2024-02-18T09:47:19.059Z,168.75
2024-02-18T09:48:19.111Z,168.75
2024-02-18T09:49:19.114Z,174.38
2024-02-18T09:50:19.061Z,174.38
2024-02-18T09:51:19.009Z,174.38
2024-02-18T09:52:18.996Z,168.75
2024-02-18T09:53:18.999Z,168.75
2024-02-18T09:54:18.985Z,168.75
2024-02-18T09:55:19.002Z,157.50
2024-02-18T09:56:18.950Z,163.12
2024-02-18T09:57:18.943Z,163.12
2024-02-18T09:58:19.010Z,168.75
2024-02-18T09:59:18.940Z,168.75
2024-02-18T10:00:18.910Z,168.75
2024-02-18T10:01:18.988Z,163.12
2024-02-18T10:02:19.029Z,151.88
2024-02-18T10:03:18.878Z,163.12
2024-02-18T10:04:18.935Z,168.75
2024-02-18T10:05:18.958Z,168.75
2024-02-18T10:06:18.905Z,168.75
2024-02-18T10:07:18.938Z,174.38
2024-02-18T10:08:18.817Z,174.38
2024-02-18T10:09:18.810Z,174.38
2024-02-18T10:10:18.820Z,174.38
2024-02-18T10:11:18.799Z,174.38
2024-02-18T10:12:18.769Z,174.38
2024-02-18T10:13:18.808Z,180.00
2024-02-18T10:14:18.753Z,180.00
2024-02-18T10:15:18.741Z,180.00
2024-02-18T10:16:18.868Z,174.38
2024-02-18T10:17:18.734Z,180.00
2024-02-18T10:18:18.961Z,180.00
2024-02-18T10:19:18.783Z,180.00
2024-02-18T10:20:18.703Z,180.00
2024-02-18T10:21:18.689Z,180.00
2024-02-18T10:22:18.659Z,185.62
2024-02-18T10:23:18.648Z,185.62
2024-02-18T10:24:18.791Z,180.00
2024-02-18T10:25:18.668Z,174.38
2024-02-18T10:26:18.614Z,168.75
2024-02-18T10:27:18.599Z,168.75
2024-02-18T10:28:18.608Z,168.75
2024-02-18T10:29:18.628Z,174.38
2024-02-18T10:30:18.602Z,180.00
2024-02-18T10:31:18.710Z,185.62
2024-02-18T10:32:18.655Z,174.38
2024-02-18T10:33:18.651Z,174.38
2024-02-18T10:34:18.897Z,174.38
2024-02-18T10:35:18.668Z,185.62
2024-02-18T10:36:18.758Z,185.62
2024-02-18T10:37:18.609Z,180.00
2024-02-18T10:38:18.477Z,168.75
2024-02-18T10:39:18.461Z,168.75
2024-02-18T10:40:18.549Z,157.50
2024-02-18T10:41:18.476Z,157.50
2024-02-18T10:42:18.438Z,163.12
2024-02-18T10:43:18.619Z,157.50
2024-02-18T10:44:18.419Z,151.88
2024-02-18T10:45:18.614Z,146.25
2024-02-18T10:46:18.542Z,151.88
2024-02-18T10:47:18.370Z,157.50
2024-02-18T10:48:18.627Z,163.12
2024-02-18T10:49:18.394Z,157.50
2024-02-18T10:50:18.540Z,157.50
2024-02-18T10:51:18.324Z,174.38
2024-02-18T10:52:18.340Z,180.00
2024-02-18T10:53:18.305Z,191.25
2024-02-18T10:54:18.295Z,196.88
2024-02-18T10:55:18.331Z,202.50
2024-02-18T10:56:18.271Z,202.50
2024-02-18T10:57:18.266Z,208.12
2024-02-18T10:58:18.373Z,208.12
2024-02-18T10:59:18.242Z,196.88
2024-02-18T11:00:18.228Z,180.00
2024-02-18T11:01:18.283Z,191.25
2024-02-18T11:02:18.205Z,196.88
2024-02-18T11:03:18.271Z,196.88
2024-02-18T11:04:18.308Z,196.88
2024-02-18T11:05:18.285Z,196.88
2024-02-18T11:06:18.554Z,151.88
2024-02-18T11:07:18.385Z,168.75
2024-02-18T11:08:18.152Z,174.38
2024-02-18T11:09:18.121Z,196.88
2024-02-18T11:10:18.215Z,196.88
2024-02-18T11:11:18.157Z,202.50
2024-02-18T11:12:18.103Z,191.25
2024-02-18T11:13:18.133Z,185.62
2024-02-18T11:14:18.085Z,180.00
2024-02-18T11:15:18.056Z,129.38
2024-02-18T11:16:18.118Z,168.75
2024-02-18T11:17:18.057Z,196.88
2024-02-18T11:18:18.224Z,185.62
2024-02-18T11:19:18.118Z,168.75
2024-02-18T11:20:18.006Z,112.50
2024-02-18T11:21:18.004Z,123.75
2024-02-18T11:22:18.040Z,168.75
2024-02-18T11:23:17.964Z,168.75
2024-02-18T11:24:17.958Z,151.88
2024-02-18T11:25:17.976Z,151.88
2024-02-18T11:26:17.945Z,163.12
2024-02-18T11:27:17.922Z,151.88
2024-02-18T11:28:17.970Z,129.38
2024-02-18T11:29:17.904Z,135.00
2024-02-18T11:30:17.897Z,112.50
2024-02-18T11:31:17.923Z,135.00
2024-02-18T11:32:17.891Z,146.25
2024-02-18T11:33:17.960Z,146.25
2024-02-18T11:34:17.939Z,129.38
2024-02-18T11:35:17.953Z,123.75
2024-02-18T11:36:17.865Z,129.38
2024-02-18T11:37:17.938Z,112.50
2024-02-18T11:38:17.924Z,135.00
2024-02-18T11:39:17.810Z,123.75
2024-02-18T11:40:17.798Z,118.12
2024-02-18T11:41:17.777Z,123.75
2024-02-18T11:42:17.776Z,112.50
2024-02-18T11:43:17.797Z,123.75
2024-02-18T11:44:17.739Z,129.38
2024-02-18T11:45:17.729Z,118.12
2024-02-18T11:46:17.835Z,123.75
2024-02-18T11:47:17.704Z,140.62
2024-02-18T11:48:17.843Z,118.12
2024-02-18T11:49:17.816Z,112.50
2024-02-18T11:50:17.673Z,118.12
2024-02-18T11:51:17.658Z,135.00
2024-02-18T11:52:19.985Z,129.38
2024-02-18T11:53:17.646Z,112.50
2024-02-18T11:54:17.757Z,123.75
2024-02-18T11:55:17.699Z,151.88
2024-02-18T11:56:17.615Z,135.00
2024-02-18T11:57:17.597Z,163.12
2024-02-18T11:58:17.611Z,168.75
2024-02-18T11:59:17.575Z,180.00
2024-02-18T12:00:17.587Z,168.75
2024-02-18T12:01:17.627Z,163.12
2024-02-18T12:02:17.543Z,151.88
2024-02-18T12:03:17.539Z,157.50
2024-02-18T12:04:17.579Z,191.25
2024-02-18T12:05:17.524Z,191.25
2024-02-18T12:06:17.531Z,174.38
2024-02-18T12:07:17.718Z,157.50
2024-02-18T12:08:17.479Z,140.62
2024-02-18T12:09:17.464Z,168.75
2024-02-18T12:10:17.563Z,140.62
2024-02-18T12:11:17.511Z,140.62
2024-02-18T12:12:17.453Z,157.50
2024-02-18T12:13:17.444Z,151.88
2024-02-18T12:14:17.408Z,196.88
2024-02-18T12:15:17.393Z,185.62
2024-02-18T12:16:17.455Z,196.88
2024-02-18T12:17:17.371Z,180.00
2024-02-18T12:18:17.431Z,151.88
2024-02-18T12:19:17.392Z,129.38
2024-02-18T12:20:17.343Z,163.12
2024-02-18T12:21:17.542Z,140.62
2024-02-18T12:22:17.384Z,168.75
2024-02-18T12:23:17.567Z,118.12
2024-02-18T12:24:17.361Z,101.25
2024-02-18T12:25:17.452Z,129.38
2024-02-18T12:26:17.294Z,140.62
2024-02-18T12:27:17.262Z,146.25
2024-02-18T12:28:17.304Z,123.75
2024-02-18T12:29:17.237Z,140.62
2024-02-18T12:30:17.250Z,146.25
2024-02-18T12:31:17.269Z,140.62
2024-02-18T12:32:17.201Z,140.62
2024-02-18T12:33:17.235Z,123.75
2024-02-18T12:34:17.259Z,118.12
2024-02-18T12:35:17.306Z,129.38
2024-02-18T12:36:17.156Z,118.12
2024-02-18T12:37:26.888Z,106.88
2024-02-18T12:38:18.161Z,106.88
2024-02-18T12:39:17.120Z,101.25
2024-02-18T12:40:17.235Z,78.75
2024-02-18T12:41:17.103Z,78.75
2024-02-18T12:42:17.211Z,106.88
2024-02-18T12:45:40.567Z,123.75
2024-02-18T12:46:18.181Z,112.50
2024-02-18T12:47:17.121Z,95.62
2024-02-18T12:48:17.670Z,106.88
2024-02-18T12:49:17.140Z,106.88
2024-02-18T12:50:17.086Z,140.62
2024-02-18T12:51:17.324Z,163.12
2024-02-18T12:52:17.087Z,163.12
2024-02-18T12:53:16.975Z,163.12
2024-02-18T12:54:17.102Z,174.38
2024-02-18T12:55:16.989Z,180.00
2024-02-18T12:56:16.939Z,180.00
2024-02-18T12:57:16.917Z,191.25
2024-02-18T12:58:17.020Z,230.62
2024-02-18T12:59:17.583Z,185.62
2024-02-18T13:00:16.934Z,157.50